createdAt,value
2018-12-02T00:00:42.446Z,60.52
2018-12-02T00:01:42.316Z,60.02
2018-12-02T00:02:42.330Z,60.22
2018-12-02T00:03:42.245Z,60.02
2018-12-02T00:04:42.234Z,60.22
2018-12-02T00:05:42.254Z,60.14
2018-12-02T00:06:42.227Z,60.55
2018-12-02T00:07:42.208Z,59.21
2018-12-02T00:08:42.219Z,59.94
2018-12-02T00:09:42.273Z,60.05
2018-12-02T00:10:42.183Z,60.35
2018-12-02T00:11:42.162Z,60.02
2018-12-02T00:12:42.152Z,60.62
2018-12-02T00:13:42.138Z,59.94
2018-12-02T00:14:42.145Z,59.84
2018-12-02T00:15:42.131Z,60.22
2018-12-02T00:16:42.100Z,60.22
2018-12-02T00:17:42.109Z,59.00
2018-12-02T00:18:42.084Z,59.31
2018-12-02T00:19:42.091Z,59.61
2018-12-02T00:20:42.087Z,59.31
2018-12-02T00:21:42.058Z,59.21
2018-12-02T00:22:42.063Z,59.11
2018-12-02T00:23:42.032Z,59.14
2018-12-02T00:24:42.029Z,59.00
2018-12-02T00:25:42.024Z,59.34
2018-12-02T00:26:42.026Z,59.94
2018-12-02T00:27:41.992Z,59.34
2018-12-02T00:28:41.977Z,59.23
2018-12-02T00:29:41.986Z,59.21
2018-12-02T00:30:42.029Z,59.21
2018-12-02T00:31:41.951Z,59.34
2018-12-02T00:32:41.937Z,59.23
2018-12-02T00:33:41.927Z,60.05
2018-12-02T00:34:41.919Z,59.64
2018-12-02T00:35:41.923Z,59.54
2018-12-02T00:36:41.909Z,59.21
2018-12-02T00:37:41.883Z,58.83
2018-12-02T00:38:41.871Z,59.23
2018-12-02T00:39:41.861Z,59.34
2018-12-02T00:40:41.866Z,59.14
2018-12-02T00:41:41.844Z,59.44
2018-12-02T00:42:41.830Z,59.34
2018-12-02T00:43:41.826Z,59.34
2018-12-02T00:44:41.814Z,59.54
2018-12-02T00:45:41.815Z,59.44
2018-12-02T00:46:41.781Z,59.34
2018-12-02T00:47:41.771Z,59.44
2018-12-02T00:48:41.811Z,59.44
2018-12-02T00:49:41.764Z,59.34
2018-12-02T00:50:41.752Z,59.64
2018-12-02T00:51:41.745Z,59.34
2018-12-02T00:52:41.721Z,59.34
2018-12-02T00:53:41.724Z,59.27
2018-12-02T00:54:41.707Z,59.23
2018-12-02T00:55:41.730Z,59.54
2018-12-02T00:56:41.678Z,60.05
2018-12-02T00:57:41.670Z,59.44
2018-12-02T00:58:41.659Z,60.05
2018-12-02T00:59:41.645Z,59.14
2018-12-02T01:00:41.662Z,59.34
2018-12-02T01:01:41.627Z,59.23
2018-12-02T01:02:41.618Z,59.14
2018-12-02T01:03:41.614Z,58.93
2018-12-02T01:04:41.591Z,59.23
2018-12-02T01:05:41.661Z,59.03
2018-12-02T01:06:41.652Z,59.14
2018-12-02T01:07:41.557Z,59.03
2018-12-02T01:08:41.549Z,58.93
2018-12-02T01:09:41.537Z,58.93
2018-12-02T01:10:41.627Z,59.23
2018-12-02T01:11:41.677Z,59.54
2018-12-02T01:12:41.618Z,58.73
2018-12-02T01:13:41.503Z,59.14
2018-12-02T01:14:41.530Z,58.73
2018-12-02T01:15:41.486Z,59.23
2018-12-02T01:16:41.507Z,58.93
2018-12-02T01:17:41.479Z,59.23
2018-12-02T01:18:41.438Z,59.54
2018-12-02T01:19:41.430Z,59.64
2018-12-02T01:20:41.489Z,59.64
2018-12-02T01:21:41.445Z,59.44
2018-12-02T01:22:41.392Z,59.03
2018-12-02T01:23:41.381Z,59.54
2018-12-02T01:24:41.374Z,59.34
2018-12-02T01:25:41.368Z,59.44
2018-12-02T01:26:41.346Z,59.54
2018-12-02T01:27:41.364Z,59.74
2018-12-02T01:28:41.331Z,59.64
2018-12-02T01:29:41.323Z,59.23
2018-12-02T01:30:41.309Z,59.34
2018-12-02T01:31:41.320Z,59.56
2018-12-02T01:32:41.306Z,59.34
2018-12-02T01:33:41.282Z,59.54
2018-12-02T01:34:41.269Z,59.03
2018-12-02T01:35:41.254Z,59.14
2018-12-02T01:36:41.249Z,59.14
2018-12-02T01:37:41.295Z,59.06
2018-12-02T01:38:41.227Z,59.14
2018-12-02T01:39:41.222Z,59.14
2018-12-02T01:40:41.215Z,59.03
2018-12-02T01:41:41.207Z,58.96
2018-12-02T01:42:41.204Z,59.14
2018-12-02T01:43:41.194Z,59.14
2018-12-02T01:44:41.196Z,59.06
2018-12-02T01:45:41.191Z,59.14
2018-12-02T01:46:41.139Z,58.93
2018-12-02T01:47:41.234Z,59.36
2018-12-02T01:48:41.160Z,59.06
2018-12-02T01:49:41.120Z,59.03
2018-12-02T01:50:41.093Z,58.83
2018-12-02T01:51:41.172Z,58.93
2018-12-02T01:52:41.164Z,58.83
2018-12-02T01:53:41.094Z,58.73
2018-12-02T01:54:41.091Z,58.83
2018-12-02T01:55:41.176Z,59.03
2018-12-02T01:56:41.072Z,58.96
2018-12-02T01:57:41.059Z,59.14
2018-12-02T01:58:41.095Z,58.63
2018-12-02T01:59:41.037Z,58.73
2018-12-02T02:00:41.095Z,58.83
2018-12-02T02:01:40.970Z,58.83
2018-12-02T02:02:40.980Z,58.53
2018-12-02T02:03:40.959Z,58.33
2018-12-02T02:04:40.944Z,58.45
2018-12-02T02:05:40.932Z,58.63
2018-12-02T02:06:40.940Z,58.43
2018-12-02T02:07:40.986Z,59.23
2018-12-02T02:08:40.905Z,58.63
2018-12-02T02:09:40.889Z,58.96
2018-12-02T02:10:40.891Z,58.33
2018-12-02T02:11:40.871Z,58.45
2018-12-02T02:12:40.866Z,58.73
2018-12-02T02:13:40.865Z,58.56
2018-12-02T02:14:40.838Z,58.43
2018-12-02T02:15:40.836Z,58.53
2018-12-02T02:16:40.823Z,58.02
2018-12-02T02:17:40.809Z,58.43
2018-12-02T02:18:40.806Z,58.43
2018-12-02T02:19:40.782Z,58.23
2018-12-02T02:20:40.773Z,58.63
2018-12-02T02:21:40.789Z,58.65
2018-12-02T02:22:40.756Z,58.53
2018-12-02T02:23:40.753Z,58.56
2018-12-02T02:24:40.729Z,57.65
2018-12-02T02:25:40.722Z,57.82
2018-12-02T02:26:40.704Z,57.42
2018-12-02T02:27:40.709Z,57.54
2018-12-02T02:28:40.695Z,57.75
2018-12-02T02:29:40.735Z,57.95
2018-12-02T02:30:40.668Z,57.95
2018-12-02T02:31:40.652Z,57.65
2018-12-02T02:32:40.649Z,57.82
2018-12-02T02:33:40.659Z,57.95
2018-12-02T02:34:40.617Z,57.75
2018-12-02T02:35:40.605Z,57.72
2018-12-02T02:36:40.597Z,58.02
2018-12-02T02:37:40.591Z,57.75
2018-12-02T02:38:40.586Z,57.21
2018-12-02T02:39:40.562Z,57.92
2018-12-02T02:40:40.551Z,57.21
2018-12-02T02:41:40.550Z,57.52
2018-12-02T02:42:40.524Z,57.72
2018-12-02T02:43:40.542Z,57.31
2018-12-02T02:44:40.510Z,57.42
2018-12-02T02:45:40.504Z,57.42
2018-12-02T02:46:40.486Z,57.34
2018-12-02T02:47:40.474Z,57.34
2018-12-02T02:48:40.487Z,57.42
2018-12-02T02:49:40.471Z,57.31
2018-12-02T02:50:40.449Z,57.21
2018-12-02T02:51:40.425Z,57.65
2018-12-02T02:52:40.425Z,57.21
2018-12-02T02:53:40.433Z,57.44
2018-12-02T02:54:40.400Z,57.11
2018-12-02T02:55:40.392Z,57.34
2018-12-02T02:56:40.378Z,57.42
2018-12-02T02:57:40.372Z,57.31
2018-12-02T02:58:40.372Z,57.34
2018-12-02T02:59:40.341Z,57.42
2018-12-02T03:00:40.331Z,57.52
2018-12-02T03:01:40.322Z,57.21
2018-12-02T03:02:40.317Z,57.52
2018-12-02T03:03:40.311Z,57.72
2018-12-02T03:04:40.299Z,57.75
2018-12-02T03:05:40.285Z,57.42
2018-12-02T03:06:40.267Z,57.42
2018-12-02T03:07:40.267Z,57.44
2018-12-02T03:08:40.263Z,57.65
2018-12-02T03:09:40.238Z,57.31
2018-12-02T03:10:40.877Z,57.82
2018-12-02T03:11:40.226Z,57.85
2018-12-02T03:12:40.202Z,57.72
2018-12-02T03:13:40.207Z,57.92
2018-12-02T03:14:40.182Z,57.85
2018-12-02T03:15:40.174Z,57.75
2018-12-02T03:16:40.170Z,57.62
2018-12-02T03:17:40.156Z,57.72
2018-12-02T03:18:40.159Z,57.95
2018-12-02T03:19:40.143Z,57.42
2018-12-02T03:20:40.119Z,57.52
2018-12-02T03:21:40.103Z,57.31
2018-12-02T03:22:40.105Z,57.44
2018-12-02T03:23:40.107Z,57.72
2018-12-02T03:24:40.077Z,57.52
2018-12-02T03:25:40.064Z,57.62
2018-12-02T03:26:40.058Z,57.24
2018-12-02T03:27:40.046Z,57.42
2018-12-02T03:28:40.050Z,57.42
2018-12-02T03:29:40.025Z,57.31
2018-12-02T03:30:40.016Z,57.24
2018-12-02T03:31:40.002Z,57.31
2018-12-02T03:32:39.994Z,57.21
2018-12-02T03:33:40.014Z,57.42
2018-12-02T03:34:39.962Z,57.21
2018-12-02T03:35:39.954Z,57.14
2018-12-02T03:36:39.947Z,57.34
2018-12-02T03:37:39.932Z,57.11
2018-12-02T03:38:39.931Z,57.01
2018-12-02T03:39:39.936Z,56.81
2018-12-02T03:40:39.907Z,56.71
2018-12-02T03:41:39.886Z,57.31
2018-12-02T03:42:39.881Z,57.34
2018-12-02T03:43:39.864Z,57.14
2018-12-02T03:44:39.874Z,57.01
2018-12-02T03:45:39.854Z,57.04
2018-12-02T03:46:39.837Z,56.81
2018-12-02T03:47:39.831Z,57.34
2018-12-02T03:48:39.809Z,56.63
2018-12-02T03:49:39.819Z,56.71
2018-12-02T03:50:39.791Z,56.71
2018-12-02T03:51:39.779Z,56.63
2018-12-02T03:52:39.773Z,56.53
2018-12-02T03:53:39.755Z,56.71
2018-12-02T03:54:39.769Z,56.63
2018-12-02T03:55:39.740Z,56.71
2018-12-02T03:56:39.727Z,56.63
2018-12-02T03:57:39.719Z,56.53
2018-12-02T03:58:39.709Z,56.84
2018-12-02T03:59:39.719Z,56.63
2018-12-02T04:00:39.688Z,56.43
2018-12-02T04:01:39.678Z,56.43
2018-12-02T04:02:39.667Z,56.43
2018-12-02T04:03:39.658Z,56.33
2018-12-02T04:04:39.653Z,56.43
2018-12-02T04:05:39.631Z,56.23
2018-12-02T04:06:39.622Z,56.43
2018-12-02T04:07:39.622Z,56.33
2018-12-02T04:08:39.598Z,56.84
2018-12-02T04:09:39.598Z,56.73
2018-12-02T04:10:39.577Z,56.71
2018-12-02T04:11:39.567Z,56.73
2018-12-02T04:12:39.580Z,56.73
2018-12-02T04:13:39.545Z,56.53
2018-12-02T04:14:39.548Z,56.71
2018-12-02T04:15:39.528Z,56.73
2018-12-02T04:16:39.516Z,56.94
2018-12-02T04:17:39.503Z,56.53
2018-12-02T04:18:39.492Z,57.04
2018-12-02T04:19:39.502Z,56.94
2018-12-02T04:20:39.470Z,56.84
2018-12-02T04:21:39.460Z,56.94
2018-12-02T04:22:39.447Z,56.84
2018-12-02T04:23:39.441Z,56.63
2018-12-02T04:24:39.431Z,56.63
2018-12-02T04:25:39.428Z,56.84
2018-12-02T04:26:39.408Z,56.71
2018-12-02T04:27:39.400Z,56.81
2018-12-02T04:28:39.388Z,56.84
2018-12-02T04:29:39.372Z,56.94
2018-12-02T04:30:39.394Z,56.53
2018-12-02T04:31:39.350Z,56.23
2018-12-02T04:32:39.349Z,56.13
2018-12-02T04:33:39.331Z,56.43
2018-12-02T04:34:39.317Z,56.43
2018-12-02T04:35:39.326Z,56.23
2018-12-02T04:36:39.306Z,56.23
2018-12-02T04:37:39.292Z,56.33
2018-12-02T04:38:39.275Z,56.71
2018-12-02T04:39:39.271Z,56.61
2018-12-02T04:40:39.266Z,56.73
2018-12-02T04:41:39.243Z,56.43
2018-12-02T04:42:39.230Z,56.53
2018-12-02T04:43:39.225Z,56.53
2018-12-02T04:44:39.211Z,56.53
2018-12-02T04:45:39.214Z,56.02
2018-12-02T04:46:39.206Z,56.33
2018-12-02T04:47:39.179Z,56.13
2018-12-02T04:48:39.164Z,56.43
2018-12-02T04:49:39.157Z,56.23
2018-12-02T04:50:39.169Z,56.23
2018-12-02T04:51:39.140Z,56.02
2018-12-02T04:52:39.125Z,56.02
2018-12-02T04:53:39.126Z,56.43
2018-12-02T04:54:39.114Z,56.23
2018-12-02T04:55:39.107Z,56.33
2018-12-02T04:56:39.081Z,56.02
2018-12-02T04:57:39.071Z,56.02
2018-12-02T04:58:39.069Z,56.33
2018-12-02T04:59:39.052Z,56.13
2018-12-02T05:00:39.053Z,56.23
2018-12-02T05:01:39.029Z,56.23
2018-12-02T05:02:39.021Z,56.02
2018-12-02T05:03:39.006Z,56.23
2018-12-02T05:04:39.001Z,56.23
2018-12-02T05:05:39.001Z,56.23
2018-12-02T05:06:38.976Z,56.23
2018-12-02T05:07:38.967Z,56.02
2018-12-02T05:08:38.954Z,56.43
2018-12-02T05:09:38.941Z,56.23
2018-12-02T05:10:38.946Z,56.02
2018-12-02T05:11:38.932Z,56.23
2018-12-02T05:12:38.925Z,56.33
2018-12-02T05:13:38.908Z,56.02
2018-12-02T05:14:38.894Z,56.23
2018-12-02T05:15:38.902Z,56.43
2018-12-02T05:16:38.882Z,56.33
2018-12-02T05:17:38.860Z,56.23
2018-12-02T05:18:38.860Z,56.02
2018-12-02T05:19:38.840Z,56.02
2018-12-02T05:20:38.844Z,56.23
2018-12-02T05:21:38.817Z,56.23
2018-12-02T05:22:38.803Z,56.13
2018-12-02T05:23:38.797Z,56.23
2018-12-02T05:24:38.793Z,56.13
2018-12-02T05:25:38.803Z,56.13
2018-12-02T05:26:38.771Z,56.43
2018-12-02T05:27:38.757Z,56.02
2018-12-02T05:28:38.743Z,56.23
2018-12-02T05:29:38.730Z,56.53
2018-12-02T05:30:38.724Z,56.43
2018-12-02T05:31:38.724Z,55.93
2018-12-02T05:32:38.703Z,56.13
2018-12-02T05:33:38.695Z,56.23
2018-12-02T05:34:38.680Z,56.13
2018-12-02T05:35:38.669Z,56.23
2018-12-02T05:36:38.668Z,55.73
2018-12-02T05:37:38.649Z,55.93
2018-12-02T05:38:38.634Z,56.23
2018-12-02T05:39:38.627Z,55.93
2018-12-02T05:40:38.614Z,55.93
2018-12-02T05:41:38.619Z,55.82
2018-12-02T05:42:38.593Z,55.62
2018-12-02T05:43:38.583Z,54.91
2018-12-02T05:44:38.568Z,54.99
2018-12-02T05:45:38.604Z,55.09
2018-12-02T05:46:38.565Z,55.11
2018-12-02T05:47:38.536Z,55.11
2018-12-02T05:48:38.531Z,55.02
2018-12-02T05:49:38.521Z,55.60
2018-12-02T05:50:38.508Z,55.52
2018-12-02T05:51:38.521Z,55.62
2018-12-02T05:52:38.480Z,55.11
2018-12-02T05:53:38.474Z,54.91
2018-12-02T05:54:38.477Z,54.91
2018-12-02T05:55:38.459Z,55.02
2018-12-02T05:56:38.475Z,54.91
2018-12-02T05:57:38.437Z,55.11
2018-12-02T05:58:38.420Z,55.62
2018-12-02T05:59:38.408Z,55.62
2018-12-02T06:00:38.396Z,55.62
2018-12-02T06:01:38.383Z,55.32
2018-12-02T06:02:39.528Z,55.62
2018-12-02T06:03:38.361Z,55.32
2018-12-02T06:04:38.353Z,55.42
2018-12-02T06:05:38.342Z,55.32
2018-12-02T06:06:38.334Z,55.42
2018-12-02T06:07:38.329Z,55.62
2018-12-02T06:08:38.309Z,55.62
2018-12-02T06:09:38.299Z,55.62
2018-12-02T06:10:38.294Z,55.82
2018-12-02T06:11:43.691Z,55.42
2018-12-02T06:12:39.311Z,55.85
2018-12-02T06:13:38.257Z,55.62
2018-12-02T06:14:38.243Z,55.42
2018-12-02T06:15:39.316Z,55.73
2018-12-02T06:16:38.225Z,55.42
2018-12-02T06:17:38.211Z,55.32
2018-12-02T06:18:38.215Z,55.65
2018-12-02T06:19:38.192Z,55.55
2018-12-02T06:20:38.177Z,55.42
2018-12-02T06:21:38.169Z,55.32
2018-12-02T06:22:38.156Z,55.35
2018-12-02T06:23:38.159Z,55.95
2018-12-02T06:24:38.137Z,56.53
2018-12-02T06:25:38.127Z,57.27
2018-12-02T06:26:38.114Z,56.56
2018-12-02T06:27:38.100Z,59.19
2018-12-02T06:28:38.109Z,58.96
2018-12-02T06:29:38.083Z,59.36
2018-12-02T06:30:38.078Z,59.16
2018-12-02T06:31:38.059Z,60.27
2018-12-02T06:32:38.053Z,60.88
2018-12-02T06:33:38.062Z,60.17
2018-12-02T06:34:38.031Z,59.97
2018-12-02T06:35:38.028Z,60.17
2018-12-02T06:36:38.029Z,60.27
2018-12-02T06:37:37.998Z,60.35
2018-12-02T06:38:37.999Z,60.48
2018-12-02T06:39:37.974Z,60.05
2018-12-02T06:40:37.963Z,59.87
2018-12-02T06:41:37.953Z,60.05
2018-12-02T06:42:37.941Z,60.07
2018-12-02T06:43:37.968Z,60.35
2018-12-02T06:44:37.922Z,59.27
2018-12-02T06:45:37.911Z,59.56
2018-12-02T06:46:37.900Z,59.27
2018-12-02T06:47:37.889Z,58.73
2018-12-02T06:48:37.875Z,59.36
2018-12-02T06:49:37.874Z,58.93
2018-12-02T06:50:37.853Z,59.14
2018-12-02T06:51:37.849Z,59.06
2018-12-02T06:52:37.829Z,58.86
2018-12-02T06:53:37.819Z,59.06
2018-12-02T06:54:37.831Z,59.36
2018-12-02T06:55:37.819Z,59.47
2018-12-02T06:56:37.790Z,59.47
2018-12-02T06:57:37.778Z,59.77
2018-12-02T06:58:37.765Z,59.16
2018-12-02T06:59:37.761Z,59.16
2018-12-02T07:00:37.766Z,58.96
2018-12-02T07:01:37.736Z,59.16
2018-12-02T07:02:37.722Z,59.06
2018-12-02T07:03:37.724Z,58.76
2018-12-02T07:04:37.704Z,59.06
2018-12-02T07:05:37.717Z,59.16
2018-12-02T07:06:37.682Z,58.76
2018-12-02T07:07:37.669Z,58.76
2018-12-02T07:08:37.663Z,59.16
2018-12-02T07:09:37.653Z,58.96
2018-12-02T07:10:37.636Z,58.96
2018-12-02T07:11:37.646Z,59.16
2018-12-02T07:12:37.616Z,58.36
2018-12-02T07:13:37.607Z,58.86
2018-12-02T07:14:37.599Z,58.86
2018-12-02T07:15:37.584Z,58.86
2018-12-02T07:16:37.591Z,58.56
2018-12-02T07:17:37.566Z,58.45
2018-12-02T07:18:37.558Z,58.15
2018-12-02T07:19:37.544Z,58.36
2018-12-02T07:20:37.529Z,58.05
2018-12-02T07:21:37.536Z,58.65
2018-12-02T07:22:37.509Z,58.56
2018-12-02T07:23:37.520Z,58.25
2018-12-02T07:24:37.499Z,57.75
2018-12-02T07:25:37.479Z,57.54
2018-12-02T07:26:37.481Z,58.15
2018-12-02T07:27:37.452Z,57.65
2018-12-02T07:28:37.448Z,57.54
2018-12-02T07:29:37.449Z,58.25
2018-12-02T07:30:37.425Z,59.36
2018-12-02T07:31:37.429Z,59.16
2018-12-02T07:32:38.547Z,59.36
2018-12-02T07:33:37.392Z,59.16
2018-12-02T07:34:37.381Z,59.56
2018-12-02T07:35:37.369Z,59.47
2018-12-02T07:36:37.385Z,59.27
2018-12-02T07:37:37.358Z,58.86
2018-12-02T07:38:37.347Z,59.23
2018-12-02T07:39:37.331Z,58.96
2018-12-02T07:40:37.327Z,59.16
2018-12-02T07:41:37.311Z,59.67
2018-12-02T07:42:37.316Z,59.36
2018-12-02T07:43:37.290Z,59.27
2018-12-02T07:44:37.274Z,59.87
2018-12-02T07:45:37.271Z,59.94
2018-12-02T07:46:37.255Z,60.58
2018-12-02T07:47:37.283Z,60.07
2018-12-02T07:48:37.230Z,60.38
2018-12-02T07:49:37.217Z,60.98
2018-12-02T07:50:37.213Z,60.78
2018-12-02T07:51:37.198Z,61.56
2018-12-02T07:52:37.188Z,62.07
2018-12-02T07:53:37.193Z,62.27
2018-12-02T07:54:37.163Z,62.27
2018-12-02T07:55:37.159Z,62.87
2018-12-02T07:56:37.143Z,64.09
2018-12-02T07:57:37.393Z,64.19
2018-12-02T07:58:37.151Z,64.49
2018-12-02T07:59:37.135Z,65.00
2018-12-02T08:00:37.109Z,64.39
2018-12-02T08:01:37.089Z,65.20
2018-12-02T08:02:37.096Z,64.90
2018-12-02T08:03:37.085Z,65.40
2018-12-02T08:04:37.073Z,65.91
2018-12-02T08:05:37.049Z,66.82
2018-12-02T08:06:37.033Z,66.72
2018-12-02T08:07:37.022Z,67.19
2018-12-02T08:08:37.026Z,66.78
2018-12-02T08:09:37.005Z,66.99
2018-12-02T08:10:36.990Z,66.38
2018-12-02T08:11:36.989Z,66.69
2018-12-02T08:12:36.978Z,66.48
2018-12-02T08:13:37.044Z,66.15
2018-12-02T08:14:36.950Z,66.99
2018-12-02T08:15:36.974Z,67.06
2018-12-02T08:16:36.942Z,67.16
2018-12-02T08:17:36.922Z,67.06
2018-12-02T08:18:36.923Z,67.06
2018-12-02T08:19:36.892Z,67.06
2018-12-02T08:20:36.885Z,66.86
2018-12-02T08:21:36.876Z,66.65
2018-12-02T08:22:36.865Z,66.75
2018-12-02T08:23:36.862Z,66.86
2018-12-02T08:24:36.864Z,66.96
2018-12-02T08:25:36.876Z,66.55
2018-12-02T08:26:36.825Z,66.75
2018-12-02T08:27:36.811Z,66.96
2018-12-02T08:28:36.803Z,66.96
2018-12-02T08:29:36.820Z,66.65
2018-12-02T08:30:36.783Z,66.15
2018-12-02T08:31:36.777Z,65.14
2018-12-02T08:32:36.765Z,65.44
2018-12-02T08:33:36.744Z,64.73
2018-12-02T08:34:36.766Z,65.34
2018-12-02T08:35:36.725Z,64.73
2018-12-02T08:36:36.715Z,65.14
2018-12-02T08:37:36.705Z,65.44
2018-12-02T08:38:36.714Z,64.73
2018-12-02T08:39:36.681Z,65.14
2018-12-02T08:40:36.689Z,64.67
2018-12-02T08:41:36.705Z,64.13
2018-12-02T08:42:36.682Z,64.46
2018-12-02T08:43:36.666Z,64.97
2018-12-02T08:44:36.645Z,64.06
2018-12-02T08:45:36.659Z,63.85
2018-12-02T08:46:36.612Z,64.26
2018-12-02T08:47:36.613Z,63.96
2018-12-02T08:48:36.592Z,64.46
2018-12-02T08:49:36.580Z,64.06
2018-12-02T08:50:36.582Z,63.96
2018-12-02T08:51:36.556Z,63.35
2018-12-02T08:52:36.548Z,63.25
2018-12-02T08:53:36.541Z,62.54
2018-12-02T08:54:36.521Z,62.95
2018-12-02T08:55:36.530Z,62.95
2018-12-02T08:56:36.503Z,62.34
2018-12-02T08:57:36.492Z,62.95
2018-12-02T08:58:36.489Z,62.24
2018-12-02T08:59:36.474Z,62.34
2018-12-02T09:00:36.472Z,62.04
2018-12-02T09:01:36.451Z,62.34
2018-12-02T09:02:36.440Z,62.27
2018-12-02T09:03:36.433Z,61.94
2018-12-02T09:04:36.414Z,61.94
2018-12-02T09:05:36.464Z,61.83
2018-12-02T09:06:36.392Z,61.73
2018-12-02T09:07:36.395Z,62.04
2018-12-02T09:08:36.378Z,61.73
2018-12-02T09:09:36.377Z,61.87
2018-12-02T09:10:36.386Z,61.66
2018-12-02T09:11:36.345Z,62.34
2018-12-02T09:12:36.332Z,61.83
2018-12-02T09:13:36.340Z,62.27
2018-12-02T09:14:36.315Z,62.04
2018-12-02T09:15:36.317Z,62.24
2018-12-02T09:16:36.290Z,62.07
2018-12-02T09:17:36.278Z,61.73
2018-12-02T09:18:36.764Z,61.73
2018-12-02T09:19:36.260Z,61.43
2018-12-02T09:20:36.261Z,61.63
2018-12-02T09:21:36.252Z,61.83
2018-12-02T09:22:36.234Z,60.62
2018-12-02T09:23:36.215Z,61.46
2018-12-02T09:24:36.225Z,61.33
2018-12-02T09:25:36.222Z,61.43
2018-12-02T09:26:36.189Z,60.72
2018-12-02T09:27:36.172Z,60.72
2018-12-02T09:28:36.164Z,60.93
2018-12-02T09:29:36.159Z,61.63
2018-12-02T09:30:36.148Z,61.43
2018-12-02T09:31:36.140Z,60.62
2018-12-02T09:32:36.118Z,60.72
2018-12-02T09:33:36.131Z,60.93
2018-12-02T09:34:36.100Z,60.42
2018-12-02T09:35:36.091Z,60.52
2018-12-02T09:36:36.112Z,60.52
2018-12-02T09:37:36.075Z,61.03
2018-12-02T09:38:36.067Z,60.32
2018-12-02T09:39:36.062Z,60.62
2018-12-02T09:40:36.047Z,60.72
2018-12-02T09:41:36.092Z,61.23
2018-12-02T09:42:36.030Z,60.52
2018-12-02T09:43:36.009Z,60.82
2018-12-02T09:44:35.993Z,61.03
2018-12-02T09:45:35.987Z,60.93
2018-12-02T09:46:36.002Z,60.72
2018-12-02T09:47:35.998Z,60.93
2018-12-02T09:48:35.951Z,60.42
2018-12-02T09:49:35.940Z,60.62
2018-12-02T09:50:35.933Z,60.32
2018-12-02T09:51:36.041Z,60.22
2018-12-02T09:52:35.961Z,60.12
2018-12-02T09:53:35.931Z,60.72
2018-12-02T09:54:35.893Z,61.13
2018-12-02T09:55:35.882Z,60.82
2018-12-02T09:56:35.872Z,60.82
2018-12-02T09:57:35.850Z,60.82
2018-12-02T09:58:35.869Z,60.72
2018-12-02T09:59:35.837Z,60.12
2018-12-02T10:00:35.830Z,60.52
2018-12-02T10:01:35.820Z,60.82
2018-12-02T10:02:35.804Z,60.52
2018-12-02T10:03:35.804Z,60.22
2018-12-02T10:04:35.793Z,60.62
2018-12-02T10:05:35.775Z,60.72
2018-12-02T10:06:35.769Z,60.72
2018-12-02T10:07:35.749Z,62.04
2018-12-02T10:08:35.759Z,61.63
2018-12-02T10:09:35.726Z,62.85
2018-12-02T10:10:35.718Z,62.34
2018-12-02T10:11:35.718Z,64.06
2018-12-02T10:12:35.732Z,64.67
2018-12-02T10:13:35.687Z,66.69
2018-12-02T10:14:35.745Z,67.49
2018-12-02T10:15:35.687Z,68.30
2018-12-02T10:16:35.674Z,69.21
2018-12-02T10:17:35.644Z,70.02
2018-12-02T10:18:35.635Z,70.42
2018-12-02T10:19:35.633Z,71.44
2018-12-02T10:20:35.624Z,71.33
2018-12-02T10:21:35.615Z,72.14
2018-12-02T10:22:35.588Z,72.64
2018-12-02T10:23:35.579Z,73.35
2018-12-02T10:24:35.571Z,73.66
2018-12-02T10:25:35.572Z,74.16
2018-12-02T10:26:35.557Z,74.97
2018-12-02T10:27:35.543Z,75.17
2018-12-02T10:28:35.533Z,73.86
2018-12-02T10:29:35.516Z,72.24
2018-12-02T10:30:35.526Z,71.53
2018-12-02T10:31:35.499Z,72.14
2018-12-02T10:32:35.487Z,73.05
2018-12-02T10:33:35.484Z,72.44
2018-12-02T10:34:35.465Z,72.51
2018-12-02T10:35:35.499Z,72.64
2018-12-02T10:36:35.443Z,71.53
2018-12-02T10:37:35.439Z,72.71
2018-12-02T10:38:35.420Z,71.44
2018-12-02T10:39:35.417Z,71.33
2018-12-02T10:40:35.400Z,70.69
2018-12-02T10:41:35.420Z,69.48
2018-12-02T10:42:35.386Z,69.48
2018-12-02T10:43:35.368Z,68.77
2018-12-02T10:44:35.360Z,67.86
2018-12-02T10:45:35.503Z,67.97
2018-12-02T10:46:35.367Z,67.16
2018-12-02T10:47:35.327Z,67.06
2018-12-02T10:48:35.340Z,65.37
2018-12-02T10:49:35.322Z,65.07
2018-12-02T10:50:35.343Z,64.26
2018-12-02T10:51:35.302Z,65.07
2018-12-02T10:52:35.273Z,64.46
2018-12-02T10:53:35.262Z,64.46
2018-12-02T10:54:35.252Z,63.96
2018-12-02T10:55:35.254Z,64.26
2018-12-02T10:56:35.231Z,63.96
2018-12-02T10:57:35.245Z,64.06
2018-12-02T10:58:35.211Z,63.85
2018-12-02T10:59:35.217Z,63.45
2018-12-02T11:00:35.191Z,63.25
2018-12-02T11:01:35.180Z,63.35
2018-12-02T11:02:35.209Z,62.95
2018-12-02T11:03:35.158Z,62.54
2018-12-02T11:04:35.153Z,63.45
2018-12-02T11:05:35.332Z,62.24
2018-12-02T11:06:36.330Z,62.24
2018-12-02T11:07:35.328Z,62.62
2018-12-02T11:08:35.151Z,62.71
2018-12-02T11:09:35.093Z,62.82
2018-12-02T11:10:35.081Z,61.60
2018-12-02T11:11:35.072Z,61.60
2018-12-02T11:12:35.064Z,61.71
2018-12-02T11:13:35.062Z,61.80
2018-12-02T11:14:35.060Z,61.71
2018-12-02T11:15:35.036Z,61.71
2018-12-02T11:16:35.542Z,61.60
2018-12-02T11:17:35.073Z,61.91
2018-12-02T11:18:35.094Z,61.71
2018-12-02T11:19:35.691Z,61.91
2018-12-02T11:20:34.978Z,62.11
2018-12-02T11:21:34.967Z,62.21
2018-12-02T11:22:35.237Z,61.91
2018-12-02T11:23:34.960Z,61.51
2018-12-02T11:24:35.964Z,61.10
2018-12-02T11:25:34.930Z,61.60
2018-12-02T11:26:34.915Z,61.60
2018-12-02T11:27:34.904Z,61.40
2018-12-02T11:28:34.914Z,61.20
2018-12-02T11:29:34.884Z,61.40
2018-12-02T11:30:34.866Z,61.53
2018-12-02T11:31:34.871Z,60.62
2018-12-02T11:32:34.845Z,61.10
2018-12-02T11:33:34.837Z,61.10
2018-12-02T11:34:34.834Z,60.80
2018-12-02T11:35:34.827Z,60.89
2018-12-02T11:36:34.812Z,61.10
2018-12-02T11:37:34.803Z,60.69
2018-12-02T11:38:34.795Z,60.89
2018-12-02T11:39:34.807Z,60.69
2018-12-02T11:40:34.766Z,60.60
2018-12-02T11:41:34.769Z,61.00
2018-12-02T11:42:34.744Z,61.10
2018-12-02T11:43:34.733Z,60.80
2018-12-02T11:44:34.726Z,60.49
2018-12-02T11:45:34.738Z,60.60
2018-12-02T11:46:34.706Z,60.29
2018-12-02T11:47:34.686Z,60.80
2018-12-02T11:48:34.686Z,61.10
2018-12-02T11:49:34.678Z,60.89
2018-12-02T11:50:34.730Z,60.89
2018-12-02T11:51:34.730Z,60.60
2018-12-02T11:52:34.687Z,60.49
2018-12-02T11:53:34.695Z,60.80
2018-12-02T11:54:34.624Z,60.49
2018-12-02T11:55:34.718Z,60.49
2018-12-02T11:56:34.709Z,60.60
2018-12-02T11:57:34.630Z,59.78
2018-12-02T11:58:34.745Z,60.49
2018-12-02T11:59:34.695Z,60.60
2018-12-02T12:00:34.589Z,60.09
2018-12-02T12:01:34.586Z,60.80
2018-12-02T12:02:34.682Z,60.60
2018-12-02T12:03:34.545Z,60.80
2018-12-02T12:04:34.589Z,59.78
2018-12-02T12:05:34.528Z,60.89
2018-12-02T12:06:34.495Z,60.80
2018-12-02T12:07:34.513Z,60.89
2018-12-02T12:08:34.649Z,59.89
2018-12-02T12:09:34.467Z,60.49
2018-12-02T12:10:34.468Z,60.49
2018-12-02T12:11:34.438Z,60.60
2018-12-02T12:12:34.426Z,60.49
2018-12-02T12:13:34.703Z,60.19
2018-12-02T12:14:34.402Z,59.78
2018-12-02T12:15:34.441Z,59.78
2018-12-02T12:16:34.384Z,59.48
2018-12-02T12:17:34.371Z,60.12
2018-12-02T12:18:34.368Z,59.89
2018-12-02T12:19:34.358Z,59.99
2018-12-02T12:20:34.345Z,60.39
2018-12-02T12:21:34.347Z,59.99
2018-12-02T12:22:34.319Z,60.49
2018-12-02T12:23:34.320Z,60.29
2018-12-02T12:24:34.340Z,60.80
2018-12-02T12:25:34.304Z,60.72
2018-12-02T12:26:34.302Z,60.80
2018-12-02T12:27:34.269Z,60.60
2018-12-02T12:28:34.265Z,59.89
2018-12-02T12:29:34.287Z,59.18
2018-12-02T12:30:34.236Z,60.19
2018-12-02T12:31:34.225Z,60.09
2018-12-02T12:32:34.269Z,59.99
2018-12-02T12:33:34.207Z,59.89
2018-12-02T12:34:34.191Z,60.09
2018-12-02T12:35:34.181Z,59.99
2018-12-02T12:36:34.177Z,60.42
2018-12-02T12:37:34.157Z,60.69
2018-12-02T12:38:34.180Z,59.99
2018-12-02T12:39:34.141Z,60.22
2018-12-02T12:40:34.155Z,60.49
2018-12-02T12:41:34.117Z,59.99
2018-12-02T12:42:34.144Z,60.19
2018-12-02T12:43:34.126Z,59.11
2018-12-02T12:44:34.088Z,60.12
2018-12-02T12:45:34.082Z,59.99
2018-12-02T12:46:34.080Z,60.32
2018-12-02T12:47:34.054Z,59.89
2018-12-02T12:48:34.091Z,60.52
2018-12-02T12:49:34.067Z,60.39
2018-12-02T12:50:34.024Z,60.09
2018-12-02T12:51:39.739Z,60.12
2018-12-02T12:52:35.002Z,60.09